Orbital elements of GONETS-D1 8
| Launched | 27 December 2001 |
| Flight ended | – |
| Launch site | Plesetsk Missile and Space Complex, Russia |
| Owner | Commonwealth of Independent States (former USSR) |
| NORAD ID | 27059 |
| Date fetched |
Epoch osculation |
Inc. [°] |
Ecc. | RA asc node [hr] |
Arg Peri. [°] |
Mean anom [°] |
Mean motion [rev/day] |
Abs. mag |
| Date fetched |
Epoch osculation |
Inc. [°] |
Ecc. | RA asc node [hr] |
Arg Peri. [°] |
Mean anom [°] |
Mean motion [rev/day] |
Abs. mag |
| 2026 May 06 17:57 | 2026 May 05 12:30:49 | 82.5420 | 0.00018 | 16.0040 | 21.7741 | 338.3427 | 12.61556 | 7.743 |
| 2026 May 05 17:57 | 2026 May 05 12:30:49 | 82.5420 | 0.00018 | 16.0040 | 21.7741 | 338.3427 | 12.61556 | 7.743 |
| 2026 May 04 17:57 | 2026 Apr 30 14:30:19 | 82.5404 | 0.00021 | 16.2139 | 29.9984 | 338.3427 | 12.61556 | 7.743 |
| 2026 May 03 17:57 | 2026 Apr 30 14:30:19 | 82.5404 | 0.00021 | 16.2139 | 29.9984 | 338.3427 | 12.61556 | 7.743 |
| 2026 May 02 17:57 | 2026 Apr 30 14:30:19 | 82.5404 | 0.00021 | 16.2139 | 29.9984 | 338.3427 | 12.61556 | 7.743 |
| 2026 May 01 17:56 | 2026 Apr 30 14:30:19 | 82.5404 | 0.00021 | 16.2139 | 29.9984 | 338.3427 | 12.61556 | 7.743 |
| 2026 Apr 30 17:56 | 2026 Apr 30 14:30:19 | 82.5404 | 0.00021 | 16.2139 | 29.9984 | 338.3427 | 12.61556 | 7.743 |
| 2026 Apr 29 17:57 | 2026 Apr 24 11:56:48 | 82.5400 | 0.00023 | 16.4746 | 40.1866 | 338.3427 | 12.61556 | 7.743 |
| 2026 Apr 28 17:56 | 2026 Apr 24 11:56:48 | 82.5400 | 0.00023 | 16.4746 | 40.1866 | 338.3427 | 12.61556 | 7.743 |
| 2026 Apr 27 17:58 | 2026 Apr 24 11:56:48 | 82.5400 | 0.00023 | 16.4746 | 40.1866 | 338.3427 | 12.61556 | 7.743 |
| 2026 Apr 26 17:58 | 2026 Apr 24 11:56:48 | 82.5400 | 0.00023 | 16.4746 | 40.1866 | 338.3427 | 12.61556 | 7.743 |
| 2026 Apr 25 17:58 | 2026 Apr 24 11:56:48 | 82.5400 | 0.00023 | 16.4746 | 40.1866 | 338.3427 | 12.61556 | 7.743 |
| 2026 Apr 24 17:59 | 2026 Apr 24 11:56:48 | 82.5400 | 0.00023 | 16.4746 | 40.1866 | 338.3427 | 12.61556 | 7.743 |
| 2026 Apr 23 17:57 | 2026 Apr 19 12:02:06 | 82.5390 | 0.00025 | 16.6879 | 47.8128 | 338.3427 | 12.61556 | 7.743 |
| 2026 Apr 22 17:57 | 2026 Apr 19 12:02:06 | 82.5390 | 0.00025 | 16.6879 | 47.8128 | 338.3427 | 12.61556 | 7.743 |
| 2026 Apr 21 17:57 | 2026 Apr 19 12:02:06 | 82.5390 | 0.00025 | 16.6879 | 47.8128 | 338.3427 | 12.61556 | 7.743 |
| 2026 Apr 20 17:57 | 2026 Apr 19 12:02:06 | 82.5390 | 0.00025 | 16.6879 | 47.8128 | 338.3427 | 12.61556 | 7.743 |
| 2026 Apr 19 17:58 | 2026 Apr 19 12:02:06 | 82.5390 | 0.00025 | 16.6879 | 47.8128 | 338.3427 | 12.61556 | 7.743 |
| 2026 Apr 18 17:56 | 2026 Apr 13 05:40:11 | 82.5378 | 0.00027 | 16.9555 | 57.4779 | 338.3427 | 12.61556 | 7.743 |
| 2026 Apr 16 17:57 | 2026 Apr 13 05:40:11 | 82.5378 | 0.00027 | 16.9555 | 57.4779 | 338.3427 | 12.61556 | 7.743 |
| 2026 Apr 14 17:57 | 2026 Apr 13 05:40:11 | 82.5378 | 0.00027 | 16.9555 | 57.4779 | 338.3427 | 12.61556 | 7.743 |
| 2026 Apr 13 17:57 | 2026 Apr 13 05:40:11 | 82.5378 | 0.00027 | 16.9555 | 57.4779 | 338.3427 | 12.61556 | 7.743 |
| 2026 Apr 12 17:57 | 2026 Apr 08 13:22:17 | 82.5376 | 0.00028 | 17.1553 | 63.8458 | 338.3427 | 12.61556 | 7.743 |
| 2026 Apr 11 17:57 | 2026 Apr 08 13:22:17 | 82.5376 | 0.00028 | 17.1553 | 63.8458 | 338.3427 | 12.61556 | 7.743 |
| 2026 Apr 10 17:58 | 2026 Apr 08 13:22:17 | 82.5376 | 0.00028 | 17.1553 | 63.8458 | 338.3427 | 12.61556 | 7.743 |
| 2026 Apr 09 18:01 | 2026 Apr 08 13:22:17 | 82.5376 | 0.00028 | 17.1553 | 63.8458 | 338.3427 | 12.61556 | 7.743 |